createdAt,value
2018-01-14T00:02:36.386Z,11.63
2018-01-14T00:17:34.836Z,10.40
2018-01-14T00:32:34.251Z,8.15
2018-01-14T00:47:35.107Z,10.20
2018-01-14T01:02:35.020Z,9.27
2018-01-14T01:17:37.512Z,9.07
2018-01-14T01:32:34.413Z,10.00
2018-01-14T01:47:35.759Z,10.20
2018-01-14T02:02:37.582Z,9.13
2018-01-14T02:17:36.450Z,7.75
2018-01-14T02:32:36.070Z,9.80
2018-01-14T02:47:34.547Z,8.55
2018-01-14T03:02:35.484Z,10.05
2018-01-14T03:17:34.364Z,12.05
2018-01-14T03:32:35.344Z,7.22
2018-01-14T03:47:36.732Z,7.37
2018-01-14T04:02:34.747Z,6.53
2018-01-14T04:17:36.678Z,8.48
2018-01-14T04:32:37.066Z,7.12
2018-01-14T04:47:37.484Z,8.18
2018-01-14T05:02:35.355Z,8.05
2018-01-14T05:17:35.441Z,6.55
2018-01-14T05:32:35.137Z,6.22
2018-01-14T05:47:36.338Z,5.35
2018-01-14T06:02:34.673Z,5.97
2018-01-14T06:17:34.129Z,5.45
2018-01-14T06:32:34.527Z,6.90
2018-01-14T06:47:33.984Z,8.75
2018-01-14T07:02:34.404Z,6.72
2018-01-14T07:17:34.416Z,12.23
2018-01-14T07:32:36.775Z,10.20
2018-01-14T07:47:34.649Z,7.68
2018-01-14T08:02:34.117Z,9.48
2018-01-14T08:17:35.706Z,7.60
2018-01-14T08:32:36.439Z,9.40
2018-01-14T08:47:34.991Z,9.35
2018-01-14T09:02:34.838Z,10.60
2018-01-14T09:17:35.359Z,6.90
2018-01-14T09:32:35.273Z,8.23
2018-01-14T09:47:35.234Z,8.13
2018-01-14T10:02:35.203Z,7.70
2018-01-14T10:17:35.123Z,7.93
2018-01-14T10:32:34.046Z,9.63
2018-01-14T10:47:35.895Z,8.18
2018-01-14T11:02:34.919Z,13.62
2018-01-14T11:17:35.355Z,9.52
2018-01-14T11:32:34.744Z,8.57
2018-01-14T11:47:34.208Z,11.75
2018-01-14T12:02:35.676Z,8.73
2018-01-14T12:17:34.154Z,11.07
2018-01-14T12:32:46.774Z,12.30
2018-01-14T12:47:35.438Z,14.43
2018-01-14T13:02:34.884Z,13.02
2018-01-14T13:17:36.814Z,14.00
2018-01-14T13:32:34.825Z,14.73
2018-01-14T13:47:35.200Z,11.80
2018-01-14T14:02:37.282Z,12.75
2018-01-14T14:17:37.144Z,12.80
2018-01-14T14:32:36.504Z,18.00
2018-01-14T14:47:33.873Z,14.80
2018-01-14T15:02:35.388Z,13.30
2018-01-14T15:17:39.254Z,15.57
2018-01-14T15:32:39.119Z,10.38
2018-01-14T15:47:35.075Z,13.35
2018-01-14T16:02:35.740Z,15.15
2018-01-14T16:17:35.596Z,14.27
2018-01-14T16:32:36.993Z,13.15
2018-01-14T16:47:37.225Z,12.18
2018-01-14T17:02:39.855Z,14.38
2018-01-14T17:17:34.803Z,15.63
2018-01-14T17:32:36.810Z,16.05
2018-01-14T17:47:36.695Z,16.85
2018-01-14T18:02:37.711Z,16.08
2018-01-14T18:17:39.618Z,15.10
2018-01-14T18:32:36.882Z,14.00
2018-01-14T18:47:39.973Z,11.65
2018-01-14T19:02:35.377Z,11.07
2018-01-14T19:17:35.387Z,11.30
2018-01-14T19:32:37.299Z,14.95
2018-01-14T19:47:35.262Z,17.73
2018-01-14T20:02:35.275Z,21.80
2018-01-14T20:17:37.148Z,17.80
2018-01-14T20:32:37.061Z,18.70
2018-01-14T20:47:37.539Z,16.10
2018-01-14T21:02:34.862Z,17.55
2018-01-14T21:17:36.771Z,14.43
2018-01-14T21:32:38.332Z,16.02
2018-01-14T21:47:38.693Z,15.23
2018-01-14T22:02:38.604Z,13.25
2018-01-14T22:17:38.441Z,13.52
2018-01-14T22:32:37.684Z,15.23
2018-01-14T22:47:37.408Z,10.13
2018-01-14T23:02:36.146Z,11.50
2018-01-14T23:17:38.299Z,12.25
2018-01-14T23:32:40.692Z,10.32
2018-01-14T23:47:36.199Z,10.32
